ADDS METAR Data INFO
IDs: Format: Raw Decoded Include TAF

Data at: 1342 UTC 25 Feb 2018

KPHX 251251Z 09005KT 10SM CLR 04/M07 A3015 RMK AO2 SLP207 T00441067 $
KPHX 251151Z 12003KT 10SM CLR 04/M05 A3013 RMK AO2 SLP202 T00441050 10094 20044 53008 $
KPHX 251051Z 00000KT 10SM CLR 06/M07 A3012 RMK AO2 SLP196 T00561072 $
KPHX 250951Z 10004KT 10SM CLR 06/M08 A3011 RMK AO2 SLP194 T00611078 $
KPHX 250851Z 08008KT 10SM CLR 06/M08 A3011 RMK AO2 SLP192 T00611078 52005 $
KPHX 250751Z 08009KT 10SM CLR 08/M08 A3011 RMK AO2 SLP191 T00781078 $
KPHX 250651Z 08004KT 10SM CLR 09/M07 A3010 RMK AO2 SLP189 T00891072 401560039 $
KPHX 250551Z 09004KT 10SM CLR 09/M07 A3010 RMK AO2 SLP187 T00941072 10150 20094 55001 $
KPHX 250451Z 00000KT 10SM CLR 11/M09 A3009 RMK AO2 SLP185 T01061089 $
KPHX 250351Z 18003KT 10SM CLR 11/M08 A3009 RMK AO2 SLP187 T01111083 $
KPHX 250251Z 26004KT 10SM CLR 13/M10 A3010 RMK AO2 SLP190 T01281100 55007 $
KPHX 250151Z 26005KT 10SM FEW250 13/M11 A3010 RMK AO2 SLP189 T01331106 $
KPHX 250051Z VRB05KT 10SM FEW250 14/M10 A3011 RMK AO2 SLP194 T01441100 $
KPHX 242351Z 00000KT 10SM FEW250 14/M12 A3012 RMK AO2 SLP197 T01391122 10156 20100 56020 $
KPHX 242251Z 00000KT 10SM FEW250 14/M12 A3013 RMK AO2 SLP199 T01441122 $
KPHX 242151Z 24009KT 10SM CLR 14/M08 A3015 RMK AO2 SLP205 T01441083 $
KPHX 242051Z 27008KT 10SM CLR 14/M07 A3018 RMK AO2 SLP217 T01391072 58028 $
KPHX 241951Z 24008KT 230V290 10SM CLR 13/M07 A3022 RMK AO2 SLP228 T01331072 $
KPHX 241851Z 28003KT 10SM FEW055 11/M06 A3025 RMK AO2 SLP239 T01111056 $
KPHX 241751Z VRB03KT 10SM FEW055 10/M04 A3027 RMK AO2 SLP246 T01001044 10106 20039 50008 $
KPHX 241651Z 22003KT 10SM CLR 09/M04 A3027 RMK AO2 SLP246 T00891039 $
KPHX 241551Z 23005KT 10SM CLR 07/M03 A3027 RMK AO2 SLP247 T00721033 $
KPHX 241451Z 23005KT 10SM CLR 05/M03 A3024 RMK AO2 SLP238 T00501033 52020 $
KPHX 241351Z 24005KT 10SM CLR 04/M03 A3022 RMK AO2 SLP230 T00391033 $
KPHX 241251Z 24005KT 10SM CLR 04/M03 A3020 RMK AO2 SLP224 T00441033
KPHX 241151Z 00000KT 10SM CLR 05/M03 A3018 RMK AO2 SLP217 T00501028 10100 20050 53006
KPHX 241051Z 27006KT 10SM CLR 06/M03 A3017 RMK AO2 SLP213 T00561033
KPHX 240951Z 28008KT 10SM CLR 07/M03 A3017 RMK AO2 SLP211 T00671033
KPHX 240851Z 27008KT 10SM CLR 07/M04 A3016 RMK AO2 SLP208 T00721039 51012
KPHX 240751Z 23007KT 10SM CLR 08/M03 A3015 RMK AO2 SLP205 T00781033
KPHX 240651Z 29008KT 10SM FEW110 09/M04 A3014 RMK AO2 SLP200 T00941039 401670050
KPHX 240551Z 29008KT 10SM FEW090 FEW110 10/M04 A3012 RMK AO2 SLP196 T01001044 10144 20100 51021
KPHX 240451Z 30009KT 10SM SCT080 BKN095 11/M05 A3011 RMK AO2 SLP193 T01111050
KPHX 240351Z 32014KT 10SM BKN080 BKN095 12/M04 A3009 RMK AO2 SLP187 T01171039
KPHX 240251Z 33017G22KT 10SM SCT070 BKN090 12/M03 A3006 RMK AO2 SLP176 T01221028 53015
KPHX 240151Z 27009KT 10SM SCT070 BKN090 12/M02 A3003 RMK AO2 SLP168 T01221022